Time;durP1;ratioP1;P1;durP2;ratioP2;P2;SDS_P1;SDS_P2;PMS_P1;PMS_P2;Temp;Humidity;BMP_temperature;BMP_pressure;BME280_temperature;BME280_humidity;BME280_pressure;Samples;Min_cycle;Max_cycle;Signal;HPM_P1;HPM_P2
2021/10/05 00:01:45;;;;;;;1.53;1.10;;;12.20;98.20;;;;;;5048101;28;20489;-73
2021/10/05 00:04:12;;;;;;;1.50;1.07;;;12.20;98.20;;;;;;5045457;28;20466;-75
2021/10/05 00:06:39;;;;;;;1.50;1.10;;;12.20;98.20;;;;;;5041659;28;20477;-75
2021/10/05 00:09:06;;;;;;;1.50;1.10;;;12.20;98.20;;;;;;5061311;28;20650;-75
2021/10/05 00:11:34;;;;;;;1.50;1.10;;;12.20;98.20;;;;;;5036707;28;20903;-75
2021/10/05 00:14:01;;;;;;;1.50;1.10;;;12.20;98.20;;;;;;5051137;28;20495;-75
2021/10/05 00:16:28;;;;;;;1.57;1.17;;;12.10;98.20;;;;;;5035770;28;20505;-75
2021/10/05 00:18:55;;;;;;;1.57;1.20;;;12.10;98.20;;;;;;5064323;28;20635;-75
2021/10/05 00:21:21;;;;;;;1.50;1.03;;;12.10;98.20;;;;;;5041178;28;20635;-75
2021/10/05 00:23:48;;;;;;;1.50;1.10;;;12.10;98.20;;;;;;5048193;28;20831;-74
2021/10/05 00:26:15;;;;;;;1.50;1.10;;;12.10;98.20;;;;;;5034010;28;20480;-75
2021/10/05 00:28:43;;;;;;;1.50;1.10;;;12.10;98.20;;;;;;5053292;28;20643;-75
2021/10/05 00:31:10;;;;;;;1.50;1.10;;;12.10;98.20;;;;;;5030841;28;20488;-75
2021/10/05 00:33:37;;;;;;;1.50;1.10;;;12.10;98.20;;;;;;5065490;28;20462;-75
2021/10/05 00:36:04;;;;;;;1.57;1.10;;;12.10;98.20;;;;;;5032805;28;20468;-75
2021/10/05 00:38:31;;;;;;;1.50;1.10;;;12.00;98.20;;;;;;5061024;28;20874;-75
2021/10/05 00:40:58;;;;;;;1.60;1.20;;;12.00;98.20;;;;;;5027932;28;20467;-74
2021/10/05 00:43:25;;;;;;;1.50;1.10;;;12.10;98.20;;;;;;5062510;28;20958;-75
2021/10/05 00:45:53;;;;;;;1.50;1.10;;;12.10;98.20;;;;;;5023780;28;21013;-75
2021/10/05 00:48:20;;;;;;;1.50;1.03;;;12.10;98.20;;;;;;5060450;28;20473;-75
2021/10/05 00:50:47;;;;;;;1.50;1.10;;;12.10;98.20;;;;;;5033053;28;20465;-74
2021/10/05 00:53:15;;;;;;;1.50;1.03;;;12.00;98.20;;;;;;5058796;28;20992;-74
2021/10/05 00:55:42;;;;;;;1.50;1.00;;;12.00;98.20;;;;;;5041605;28;20982;-75
2021/10/05 00:58:09;;;;;;;1.53;1.10;;;12.00;98.20;;;;;;5050338;28;20493;-75
2021/10/05 01:00:37;;;;;;;1.53;1.10;;;12.00;98.20;;;;;;5040488;28;20466;-75
2021/10/05 01:03:05;;;;;;;1.50;1.10;;;12.00;98.20;;;;;;5047553;28;20543;-74
2021/10/05 01:05:32;;;;;;;1.50;1.07;;;12.00;98.20;;;;;;5046902;28;20451;-75
2021/10/05 01:07:59;;;;;;;1.50;1.10;;;12.00;98.20;;;;;;5046228;28;20490;-74
2021/10/05 01:10:26;;;;;;;1.50;1.10;;;12.00;98.20;;;;;;5046483;28;20470;-75
2021/10/05 01:12:53;;;;;;;1.50;1.00;;;11.90;98.20;;;;;;5039604;28;20486;-75
2021/10/05 01:15:24;;;;;;;1.50;1.10;;;11.90;98.20;;;;;;5040837;28;20482;-75
2021/10/05 01:17:52;;;;;;;1.50;1.10;;;11.90;98.20;;;;;;5054118;28;20825;-75
2021/10/05 01:20:20;;;;;;;1.50;1.10;;;11.90;98.20;;;;;;5044098;28;20466;-75
2021/10/05 01:22:48;;;;;;;1.50;1.10;;;11.90;98.20;;;;;;5035131;28;20792;-74
2021/10/05 01:25:17;;;;;;;1.50;1.10;;;11.90;98.20;;;;;;5038676;28;20461;-75
2021/10/05 01:27:46;;;;;;;1.50;1.10;;;11.90;98.20;;;;;;5047695;28;20494;-76
2021/10/05 01:30:13;;;;;;;1.50;1.10;;;11.90;98.20;;;;;;5040964;28;20470;-76
2021/10/05 01:32:40;;;;;;;1.50;1.10;;;11.90;98.20;;;;;;5039286;28;20478;-77
2021/10/05 01:35:08;;;;;;;1.57;1.20;;;11.80;98.20;;;;;;5046996;28;20482;-77
2021/10/05 01:37:35;;;;;;;1.53;1.10;;;11.80;98.20;;;;;;5043052;28;20534;-78
2021/10/05 01:40:05;;;;;;;1.50;1.10;;;11.80;98.20;;;;;;5046547;28;20643;-76
2021/10/05 01:42:32;;;;;;;1.50;1.10;;;11.80;98.20;;;;;;5049683;28;20979;-76
2021/10/05 01:44:59;;;;;;;1.53;1.10;;;11.80;98.20;;;;;;5045903;28;20467;-77
2021/10/05 01:47:26;;;;;;;1.50;1.10;;;11.80;98.20;;;;;;5040936;28;20476;-77
2021/10/05 01:49:53;;;;;;;1.60;1.20;;;11.80;98.20;;;;;;5043418;28;20934;-77
2021/10/05 01:52:19;;;;;;;1.60;1.40;;;11.80;98.20;;;;;;5052836;28;20480;-77
2021/10/05 01:54:46;;;;;;;1.50;1.10;;;11.80;98.20;;;;;;5053206;28;20482;-78
2021/10/05 01:57:14;;;;;;;1.53;1.10;;;11.80;98.20;;;;;;5051165;28;20491;-77
2021/10/05 01:59:41;;;;;;;1.50;1.10;;;11.70;98.20;;;;;;5047824;28;20470;-77
2021/10/05 02:02:08;;;;;;;1.50;1.10;;;11.70;98.20;;;;;;5042652;28;20484;-76
2021/10/05 02:04:35;;;;;;;1.50;1.10;;;11.70;98.20;;;;;;5046141;28;20466;-77
2021/10/05 02:07:02;;;;;;;1.50;1.10;;;11.70;98.20;;;;;;5054482;28;20493;-76
2021/10/05 02:09:29;;;;;;;1.50;1.17;;;11.70;98.20;;;;;;5045451;28;20473;-77
2021/10/05 02:11:56;;;;;;;1.50;1.10;;;11.70;98.20;;;;;;5036213;28;20486;-77
2021/10/05 02:14:24;;;;;;;1.53;1.10;;;11.70;98.20;;;;;;5043902;28;20481;-77
2021/10/05 02:16:51;;;;;;;1.50;1.10;;;11.60;98.20;;;;;;5040171;28;20474;-77
2021/10/05 02:19:18;;;;;;;1.50;1.10;;;11.60;98.20;;;;;;5045429;28;20949;-77
2021/10/05 02:21:45;;;;;;;1.50;1.10;;;11.60;98.20;;;;;;5040759;28;20485;-77
2021/10/05 02:26:57;;;;;;;1.53;1.10;;;11.60;98.20;;;;;;5040203;28;20552;-77
2021/10/05 02:29:25;;;;;;;1.50;1.20;;;11.60;98.20;;;;;;5047760;28;20458;-75
2021/10/05 02:31:52;;;;;;;1.57;1.10;;;11.60;98.20;;;;;;5038269;28;20504;-76
2021/10/05 02:34:19;;;;;;;1.50;1.20;;;11.60;98.20;;;;;;5050966;28;20950;-75
2021/10/05 02:36:46;;;;;;;1.53;1.20;;;11.60;98.20;;;;;;5035822;28;20540;-77
2021/10/05 02:39:13;;;;;;;1.60;1.20;;;11.60;98.20;;;;;;5052305;28;20477;-76
2021/10/05 02:41:40;;;;;;;1.50;1.10;;;11.60;98.20;;;;;;5029673;28;20540;-76
2021/10/05 02:44:07;;;;;;;1.57;1.17;;;11.60;98.20;;;;;;5051697;28;20885;-76
2021/10/05 02:46:35;;;;;;;1.50;1.10;;;11.60;98.20;;;;;;5031272;28;20495;-76
2021/10/05 02:49:02;;;;;;;1.53;1.10;;;11.60;98.20;;;;;;5059689;28;20471;-76
2021/10/05 02:51:29;;;;;;;1.50;1.10;;;11.60;98.20;;;;;;5033673;28;20481;-77
2021/10/05 02:53:56;;;;;;;1.53;1.10;;;11.60;98.20;;;;;;5057788;28;20470;-76
2021/10/05 02:56:23;;;;;;;1.50;1.10;;;11.70;98.20;;;;;;5031226;28;20478;-76
2021/10/05 02:58:49;;;;;;;1.50;1.13;;;11.70;98.20;;;;;;5057525;28;20487;-78
2021/10/05 03:01:16;;;;;;;1.50;1.10;;;11.70;98.20;;;;;;5035933;28;20481;-77
2021/10/05 03:03:45;;;;;;;1.50;1.10;;;11.60;98.20;;;;;;5056162;28;20480;-76
2021/10/05 03:06:11;;;;;;;1.57;1.20;;;11.60;98.20;;;;;;5039776;28;20488;-76
2021/10/05 03:08:41;;;;;;;1.50;1.10;;;11.60;98.20;;;;;;5058187;28;20483;-77
2021/10/05 03:11:08;;;;;;;1.57;1.10;;;11.60;98.20;;;;;;5027691;28;21035;-76
2021/10/05 03:13:35;;;;;;;1.50;1.10;;;11.60;98.20;;;;;;5058045;28;20467;-77
2021/10/05 03:16:02;;;;;;;1.53;1.10;;;11.60;98.20;;;;;;5027846;28;20483;-76
2021/10/05 03:18:29;;;;;;;1.60;1.30;;;11.60;98.20;;;;;;5056020;28;20990;-78
2021/10/05 03:20:58;;;;;;;1.50;1.20;;;11.60;98.20;;;;;;5024441;28;20839;-77
2021/10/05 03:23:25;;;;;;;1.50;1.17;;;11.60;98.20;;;;;;5055442;28;20477;-77
2021/10/05 03:25:51;;;;;;;1.50;1.20;;;11.60;98.20;;;;;;5037167;28;20466;-76
2021/10/05 03:28:18;;;;;;;1.60;1.43;;;11.60;98.20;;;;;;5055028;28;20489;-77
2021/10/05 03:30:45;;;;;;;1.50;1.03;;;11.60;98.20;;;;;;5039989;28;20458;-77
2021/10/05 03:33:12;;;;;;;1.53;1.17;;;11.60;98.20;;;;;;5034008;28;20470;-77
2021/10/05 03:35:39;;;;;;;1.50;1.10;;;11.60;98.20;;;;;;5045607;28;20479;-77
2021/10/05 03:38:07;;;;;;;1.50;1.13;;;11.60;98.20;;;;;;5057080;28;21097;-77
2021/10/05 03:40:34;;;;;;;1.50;1.10;;;11.60;98.20;;;;;;5041659;28;21020;-77
2021/10/05 03:43:00;;;;;;;1.50;1.20;;;11.60;98.20;;;;;;5049172;28;20489;-77
2021/10/05 03:45:28;;;;;;;1.50;1.20;;;11.70;98.20;;;;;;5045819;28;20450;-76
2021/10/05 03:47:54;;;;;;;1.50;1.10;;;11.70;98.20;;;;;;5049038;28;20481;-78
2021/10/05 03:50:21;;;;;;;1.50;1.20;;;11.70;98.20;;;;;;5046628;28;20459;-77
2021/10/05 03:52:48;;;;;;;1.50;1.10;;;11.70;98.20;;;;;;5049276;28;20513;-76
2021/10/05 03:55:16;;;;;;;1.50;1.10;;;11.70;98.20;;;;;;5043547;28;20486;-76
2021/10/05 03:57:43;;;;;;;1.50;1.10;;;11.70;98.20;;;;;;5054849;28;20840;-77
2021/10/05 04:00:11;;;;;;;1.53;1.20;;;11.70;98.20;;;;;;5042896;28;20466;-77
2021/10/05 04:02:38;;;;;;;1.50;1.10;;;11.80;98.20;;;;;;5058031;28;20637;-75
2021/10/05 04:05:05;;;;;;;1.50;1.10;;;11.80;98.20;;;;;;5039948;28;20458;-77
2021/10/05 04:07:32;;;;;;;1.50;1.10;;;11.80;98.20;;;;;;5048892;28;20477;-77
2021/10/05 04:09:59;;;;;;;1.50;1.17;;;11.80;98.20;;;;;;5044130;28;20829;-77
2021/10/05 04:12:27;;;;;;;1.53;1.10;;;11.80;98.20;;;;;;5051107;28;20491;-78
2021/10/05 04:14:54;;;;;;;1.50;1.10;;;11.80;98.20;;;;;;5049142;28;20470;-76
2021/10/05 04:17:20;;;;;;;1.50;1.20;;;11.80;98.20;;;;;;5036669;28;20924;-75
2021/10/05 04:19:47;;;;;;;1.50;1.00;;;11.80;98.20;;;;;;5045469;28;20469;-76
2021/10/05 04:22:14;;;;;;;1.60;1.20;;;11.80;98.20;;;;;;5035503;28;20491;-77
2021/10/05 04:24:41;;;;;;;1.50;1.20;;;11.80;98.20;;;;;;5046133;28;21035;-77
2021/10/05 04:27:10;;;;;;;1.50;1.10;;;11.80;98.20;;;;;;5040764;28;20476;-75
2021/10/05 04:29:41;;;;;;;1.60;1.30;;;11.80;98.20;;;;;;5050580;28;20577;-77
2021/10/05 04:32:09;;;;;;;1.50;1.10;;;11.80;98.20;;;;;;5052918;28;20473;-75
2021/10/05 04:34:37;;;;;;;1.50;1.10;;;11.80;98.20;;;;;;5051606;28;21021;-77
2021/10/05 04:37:06;;;;;;;1.50;1.10;;;11.80;98.20;;;;;;5055563;28;20485;-77
2021/10/05 04:39:35;;;;;;;1.50;1.10;;;11.80;98.20;;;;;;5050670;28;20463;-76
2021/10/05 04:42:03;;;;;;;1.57;1.20;;;11.80;98.20;;;;;;5042548;28;20902;-75
2021/10/05 04:44:30;;;;;;;1.50;1.10;;;11.80;98.20;;;;;;5044848;28;21001;-77
2021/10/05 04:46:59;;;;;;;1.50;1.00;;;11.80;98.20;;;;;;5037084;28;20498;-76
2021/10/05 04:49:26;;;;;;;1.50;1.10;;;11.80;98.20;;;;;;5058845;28;20462;-78
2021/10/05 04:51:54;;;;;;;1.70;1.43;;;11.80;98.20;;;;;;5038438;28;20569;-77
2021/10/05 04:54:22;;;;;;;1.50;1.10;;;11.80;98.20;;;;;;5059567;28;20900;-76
2021/10/05 04:56:51;;;;;;;1.50;1.00;;;11.80;98.20;;;;;;5043888;28;20494;-76
2021/10/05 04:59:19;;;;;;;1.50;1.00;;;11.80;98.20;;;;;;5054340;28;20684;-75
2021/10/05 05:01:46;;;;;;;1.53;1.10;;;11.80;98.20;;;;;;5030649;28;20487;-75
2021/10/05 05:04:22;;;;;;;1.50;1.13;;;11.80;98.20;;;;;;5062704;28;20548;-77
2021/10/05 05:06:50;;;;;;;1.50;1.00;;;11.80;98.20;;;;;;5036015;28;20481;-76
2021/10/05 05:09:17;;;;;;;1.50;1.17;;;11.70;98.20;;;;;;5056946;28;20471;-76
2021/10/05 05:11:44;;;;;;;1.50;1.10;;;11.70;98.20;;;;;;5043202;28;20557;-79
2021/10/05 05:14:18;;;;;;;1.50;1.10;;;11.70;98.20;;;;;;5062653;28;20955;-77
2021/10/05 05:16:47;;;;;;;1.50;1.00;;;11.70;98.20;;;;;;5046867;28;20532;-77
2021/10/05 05:19:15;;;;;;;1.60;1.20;;;11.70;98.20;;;;;;5062237;28;20946;-78
2021/10/05 05:21:43;;;;;;;1.50;1.10;;;11.70;98.20;;;;;;5035920;28;20477;-78
2021/10/05 05:24:18;;;;;;;1.53;1.10;;;11.70;98.20;;;;;;5048926;28;20501;-78
2021/10/05 05:26:47;;;;;;;1.50;1.10;;;11.70;98.20;;;;;;5050284;28;21035;-78
2021/10/05 05:29:14;;;;;;;1.50;1.10;;;11.70;98.20;;;;;;5049706;28;20893;-77
2021/10/05 05:31:41;;;;;;;1.50;1.10;;;11.70;98.20;;;;;;5035836;28;20485;-78
2021/10/05 05:34:08;;;;;;;1.50;1.10;;;11.70;98.20;;;;;;5047090;28;20852;-78
2021/10/05 05:36:36;;;;;;;1.50;1.10;;;11.70;98.20;;;;;;5039310;28;20859;-77
2021/10/05 05:39:04;;;;;;;1.57;1.20;;;11.70;98.20;;;;;;5054391;28;20620;-77
2021/10/05 05:41:31;;;;;;;1.50;1.10;;;11.70;98.20;;;;;;5037800;28;20482;-76
2021/10/05 05:43:58;;;;;;;1.50;1.10;;;11.70;98.20;;;;;;5055576;28;20459;-78
2021/10/05 05:46:25;;;;;;;1.50;1.10;;;11.70;98.20;;;;;;5042930;28;20531;-76
2021/10/05 05:48:52;;;;;;;1.50;1.10;;;11.60;98.20;;;;;;5056949;28;20474;-77
2021/10/05 05:51:19;;;;;;;1.50;1.13;;;11.70;98.20;;;;;;5040769;28;20535;-77
2021/10/05 05:53:48;;;;;;;1.50;1.10;;;11.70;98.20;;;;;;5060400;28;20462;-77
2021/10/05 05:56:15;;;;;;;1.50;1.10;;;11.70;98.20;;;;;;5038068;28;20496;-76
2021/10/05 05:58:42;;;;;;;1.50;1.00;;;11.70;98.20;;;;;;5063850;28;20857;-76
2021/10/05 06:01:08;;;;;;;1.50;1.10;;;11.70;98.20;;;;;;5024413;28;21023;-77
2021/10/05 06:03:35;;;;;;;1.50;1.13;;;11.70;98.20;;;;;;5066472;28;20461;-77
2021/10/05 06:06:02;;;;;;;1.50;1.10;;;11.70;98.20;;;;;;5031922;28;20455;-77
2021/10/05 06:08:29;;;;;;;1.50;1.10;;;11.70;98.20;;;;;;5062616;28;20517;-78
2021/10/05 06:10:57;;;;;;;1.50;1.10;;;11.70;98.20;;;;;;5023205;28;20455;-78
2021/10/05 06:13:24;;;;;;;1.60;1.20;;;11.70;98.20;;;;;;5053266;28;20458;-77
2021/10/05 06:15:51;;;;;;;1.50;1.00;;;11.70;98.20;;;;;;5020717;28;20490;-77
2021/10/05 06:18:18;;;;;;;1.50;1.07;;;11.70;98.20;;;;;;5056314;28;20481;-78
2021/10/05 06:20:45;;;;;;;1.50;1.10;;;11.80;98.20;;;;;;5039959;28;20500;-77
2021/10/05 06:23:12;;;;;;;1.53;1.10;;;11.80;98.20;;;;;;5030594;28;20477;-77
2021/10/05 06:25:41;;;;;;;1.50;1.03;;;11.80;98.20;;;;;;5041649;28;20483;-77
2021/10/05 06:28:10;;;;;;;1.50;1.10;;;11.80;98.20;;;;;;5046785;28;20854;-77
2021/10/05 06:30:38;;;;;;;1.50;1.13;;;11.80;98.20;;;;;;5033035;28;20459;-77
2021/10/05 06:33:05;;;;;;;1.57;1.20;;;11.90;98.20;;;;;;5046158;28;20485;-79
2021/10/05 06:35:32;;;;;;;1.57;1.20;;;11.90;98.20;;;;;;5037633;28;20840;-78
2021/10/05 06:38:01;;;;;;;1.53;1.10;;;11.90;98.20;;;;;;5045695;28;20510;-76
2021/10/05 06:40:32;;;;;;;1.50;1.10;;;11.90;98.20;;;;;;5039850;28;20837;-74
2021/10/05 06:43:00;;;;;;;1.50;1.10;;;11.90;98.20;;;;;;5040720;28;20769;-74
2021/10/05 06:45:28;;;;;;;1.60;1.20;;;12.00;98.20;;;;;;5038099;28;20817;-78
2021/10/05 06:47:55;;;;;;;1.53;1.10;;;12.00;98.20;;;;;;5041993;28;20490;-76
2021/10/05 06:50:22;;;;;;;1.53;1.10;;;12.00;98.20;;;;;;5041201;28;20517;-78
2021/10/05 06:52:50;;;;;;;1.50;1.10;;;12.10;98.20;;;;;;5042899;28;20481;-78
2021/10/05 06:55:17;;;;;;;1.53;1.10;;;12.10;98.20;;;;;;5046174;28;20469;-77
2021/10/05 06:57:44;;;;;;;1.93;1.50;;;12.20;98.20;;;;;;5044652;28;20537;-75
2021/10/05 07:00:13;;;;;;;1.60;1.20;;;12.20;98.20;;;;;;5044543;28;20635;-75
2021/10/05 07:02:43;;;;;;;1.53;1.10;;;12.30;98.20;;;;;;5045116;28;20571;-75
2021/10/05 07:05:10;;;;;;;1.50;1.10;;;12.30;98.20;;;;;;5046197;28;20987;-75
2021/10/05 07:07:39;;;;;;;1.50;1.00;;;12.40;98.20;;;;;;5047115;28;20571;-77
2021/10/05 07:10:08;;;;;;;1.60;1.20;;;12.50;98.20;;;;;;5047401;28;20946;-78
2021/10/05 07:12:35;;;;;;;1.50;1.10;;;12.60;98.20;;;;;;5055001;28;20504;-77
2021/10/05 07:15:02;;;;;;;1.50;1.00;;;12.60;98.20;;;;;;5041538;28;20558;-77
2021/10/05 07:17:29;;;;;;;1.53;1.10;;;12.70;98.20;;;;;;5038760;28;20565;-77
2021/10/05 07:19:58;;;;;;;1.57;1.10;;;12.70;98.20;;;;;;5037578;28;20470;-76
2021/10/05 07:22:25;;;;;;;1.60;1.10;;;12.80;98.20;;;;;;5048873;28;20476;-76
2021/10/05 07:24:52;;;;;;;1.50;1.00;;;12.90;98.20;;;;;;5038109;28;20499;-75
2021/10/05 07:27:19;;;;;;;1.50;1.10;;;12.90;98.20;;;;;;5046534;28;20519;-77
2021/10/05 07:29:46;;;;;;;1.50;1.10;;;13.00;98.20;;;;;;5044115;28;20462;-75
2021/10/05 07:32:14;;;;;;;1.53;1.00;;;13.00;98.20;;;;;;5045762;28;20481;-76
2021/10/05 07:34:42;;;;;;;1.53;1.03;;;13.10;98.20;;;;;;5042145;28;20474;-74
2021/10/05 07:37:10;;;;;;;1.53;1.00;;;13.20;98.20;;;;;;5043096;28;20865;-77
2021/10/05 07:39:37;;;;;;;1.50;1.00;;;13.40;98.20;;;;;;5052398;28;20541;-77
2021/10/05 07:42:04;;;;;;;1.53;1.10;;;13.50;98.20;;;;;;5033413;28;21003;-75
2021/10/05 07:44:33;;;;;;;1.53;1.00;;;13.70;98.20;;;;;;5053729;28;20759;-75
2021/10/05 07:47:00;;;;;;;1.50;1.00;;;13.70;98.20;;;;;;5032784;28;20495;-73
2021/10/05 07:49:27;;;;;;;1.50;1.00;;;13.80;98.20;;;;;;5045863;28;20458;-75
2021/10/05 07:51:54;;;;;;;1.50;1.00;;;13.90;98.20;;;;;;5030673;28;20484;-78
2021/10/05 07:54:22;;;;;;;1.57;1.00;;;14.00;98.20;;;;;;5055914;28;20981;-77
2021/10/05 07:56:49;;;;;;;1.50;1.10;;;14.10;98.20;;;;;;5031489;28;20481;-75
2021/10/05 07:59:16;;;;;;;3.70;3.07;;;14.20;98.20;;;;;;5064413;28;20540;-77
2021/10/05 08:01:49;;;;;;;1.60;1.20;;;14.30;98.20;;;;;;5043547;28;20499;-77
2021/10/05 08:04:15;;;;;;;1.50;1.00;;;14.40;98.20;;;;;;5052215;28;20875;-75
2021/10/05 08:06:43;;;;;;;1.57;1.00;;;14.40;98.20;;;;;;5042828;28;21002;-75
2021/10/05 08:09:10;;;;;;;1.57;1.00;;;14.40;98.20;;;;;;5054607;28;20955;-75
2021/10/05 08:11:38;;;;;;;1.53;1.00;;;14.50;98.20;;;;;;5029213;28;20592;-77
2021/10/05 08:14:05;;;;;;;1.50;1.00;;;14.50;98.20;;;;;;5055741;28;20464;-76
2021/10/05 08:16:32;;;;;;;1.53;1.07;;;14.60;98.20;;;;;;5030593;28;20508;-79
2021/10/05 08:18:59;;;;;;;1.57;1.00;;;14.70;98.20;;;;;;5049932;28;21052;-75
2021/10/05 08:21:26;;;;;;;1.57;1.03;;;14.80;98.20;;;;;;5044101;28;20478;-75
2021/10/05 08:23:53;;;;;;;1.53;1.03;;;14.90;98.20;;;;;;5051106;28;20463;-75
2021/10/05 08:26:21;;;;;;;1.60;1.00;;;15.00;98.20;;;;;;5045172;28;20476;-77
2021/10/05 08:28:50;;;;;;;1.50;1.00;;;15.20;98.20;;;;;;5055770;28;20994;-76
2021/10/05 08:31:18;;;;;;;1.50;1.00;;;15.40;98.20;;;;;;5032954;28;21409;-74
2021/10/05 08:33:45;;;;;;;1.50;1.00;;;15.60;98.20;;;;;;5055401;28;20462;-76
2021/10/05 08:36:12;;;;;;;1.53;1.00;;;15.70;98.20;;;;;;5037796;28;20487;-77
2021/10/05 08:38:40;;;;;;;1.57;1.00;;;15.70;98.20;;;;;;5051134;28;20478;-78
2021/10/05 08:41:08;;;;;;;1.50;1.00;;;15.90;98.20;;;;;;5040681;28;20711;-74
2021/10/05 08:43:35;;;;;;;1.53;1.00;;;16.10;98.20;;;;;;5054737;28;20480;-77
2021/10/05 08:46:05;;;;;;;1.50;1.00;;;16.10;98.10;;;;;;5030808;28;20919;-76
2021/10/05 08:48:33;;;;;;;1.57;1.00;;;16.20;98.20;;;;;;5063328;28;20477;-76
2021/10/05 08:51:00;;;;;;;1.50;1.00;;;16.30;98.20;;;;;;5031005;28;20849;-78
2021/10/05 08:53:28;;;;;;;1.57;0.90;;;16.40;97.50;;;;;;5068745;28;20496;-76
2021/10/05 08:55:55;;;;;;;1.53;1.00;;;16.50;97.80;;;;;;5034162;28;20502;-76
2021/10/05 08:58:22;;;;;;;1.53;1.00;;;16.60;96.40;;;;;;5062400;28;20833;-74
2021/10/05 09:00:49;;;;;;;1.53;1.00;;;16.50;97.30;;;;;;5032391;28;20459;-78
2021/10/05 09:03:23;;;;;;;1.53;1.00;;;16.50;97.10;;;;;;5065489;28;20458;-77
2021/10/05 09:05:50;;;;;;;1.60;1.00;;;16.50;96.90;;;;;;5026118;28;20467;-74
2021/10/05 09:08:22;;;;;;;1.50;1.00;;;16.40;96.70;;;;;;5069263;28;20570;-78
2021/10/05 09:10:53;;;;;;;1.50;1.03;;;16.30;96.70;;;;;;5025303;28;20951;-78
2021/10/05 09:13:31;;;;;;;1.50;1.00;;;16.20;96.80;;;;;;5063896;28;20561;-78
2021/10/05 09:15:57;;;;;;;1.50;1.00;;;16.30;96.80;;;;;;5023754;28;20993;-77
2021/10/05 09:18:26;;;;;;;1.50;1.00;;;16.40;96.50;;;;;;5057377;28;20917;-75
2021/10/05 09:20:53;;;;;;;1.50;0.93;;;16.50;96.50;;;;;;5047784;22;20508;-74
2021/10/05 09:23:20;;;;;;;1.50;1.00;;;16.70;96.60;;;;;;5027975;28;20455;-79
2021/10/05 09:25:51;;;;;;;1.57;1.00;;;16.80;94.70;;;;;;5000371;28;20518;-79
2021/10/05 09:28:20;;;;;;;1.50;1.00;;;16.90;94.90;;;;;;5003321;28;20491;-74
2021/10/05 09:31:05;;;;;;;1.50;1.00;;;16.90;93.80;;;;;;4981911;28;20476;-75
2021/10/05 09:33:35;;;;;;;1.50;1.00;;;16.80;94.00;;;;;;5004899;28;20468;-79
2021/10/05 09:36:06;;;;;;;1.60;1.00;;;16.80;94.80;;;;;;4978259;28;20476;-75
2021/10/05 09:38:33;;;;;;;1.50;0.90;;;16.80;94.40;;;;;;5004677;28;20488;-75
2021/10/05 09:41:03;;;;;;;1.50;1.00;;;16.90;94.70;;;;;;4980115;28;20473;-80
2021/10/05 09:43:30;;;;;;;1.50;1.00;;;17.00;95.10;;;;;;5010659;28;20464;-78
2021/10/05 09:46:09;;;;;;;1.50;1.00;;;17.10;94.60;;;;;;4981679;28;20548;-78
2021/10/05 09:48:37;;;;;;;1.53;1.00;;;17.20;93.60;;;;;;4995486;28;20896;-78
2021/10/05 09:51:16;;;;;;;1.50;1.00;;;17.30;93.80;;;;;;4981441;28;20469;-79
2021/10/05 09:53:43;;;;;;;1.50;0.97;;;17.40;93.90;;;;;;5001884;28;20472;-76
2021/10/05 09:56:12;;;;;;;1.50;1.00;;;17.40;93.10;;;;;;4983999;28;20716;-77
2021/10/05 09:58:39;;;;;;;1.50;1.00;;;17.40;92.80;;;;;;5006749;28;20484;-77
2021/10/05 10:01:06;;;;;;;1.50;0.90;;;17.40;92.50;;;;;;4981844;28;21001;-76
2021/10/05 10:03:34;;;;;;;1.50;0.90;;;17.50;92.90;;;;;;4998359;28;20468;-75
2021/10/05 10:06:07;;;;;;;1.57;1.00;;;17.60;92.30;;;;;;4979974;28;21036;-77
2021/10/05 10:08:36;;;;;;;1.50;1.00;;;17.60;91.50;;;;;;5001687;28;20494;-77
2021/10/05 10:11:03;;;;;;;1.50;1.00;;;17.70;90.80;;;;;;4980654;28;20466;-78
2021/10/05 10:13:30;;;;;;;1.50;0.90;;;17.70;90.80;;;;;;5003420;28;20465;-79
2021/10/05 10:15:59;;;;;;;1.53;1.00;;;17.80;91.10;;;;;;4988037;28;20464;-78
2021/10/05 10:18:26;;;;;;;1.50;1.00;;;17.90;90.30;;;;;;5006866;28;21480;-76
2021/10/05 10:21:05;;;;;;;1.50;1.00;;;18.00;89.90;;;;;;4984600;28;20520;-78
2021/10/05 10:23:34;;;;;;;1.50;0.93;;;18.00;90.10;;;;;;4999079;28;20556;-80
2021/10/05 10:26:03;;;;;;;1.50;0.90;;;18.10;88.70;;;;;;4978532;28;20475;-79
2021/10/05 10:28:33;;;;;;;1.50;0.90;;;18.20;88.60;;;;;;5001455;28;20504;-79
2021/10/05 10:31:03;;;;;;;1.50;0.90;;;18.30;88.00;;;;;;4978355;28;20976;-77
2021/10/05 10:33:43;;;;;;;1.50;0.90;;;18.40;87.90;;;;;;5004681;28;20499;-79
2021/10/05 10:36:11;;;;;;;1.50;1.00;;;18.30;86.70;;;;;;4985687;28;20507;-76
2021/10/05 10:38:42;;;;;;;1.50;0.90;;;18.30;86.70;;;;;;4997882;28;20818;-79
2021/10/05 10:41:15;;;;;;;1.50;1.00;;;18.30;87.30;;;;;;4993964;28;20464;-79
2021/10/05 10:43:52;;;;;;;1.50;1.00;;;18.40;86.90;;;;;;4977614;28;20482;-77
2021/10/05 10:46:25;;;;;;;1.50;0.90;;;18.50;87.80;;;;;;4987513;28;20569;-76
2021/10/05 10:48:56;;;;;;;1.50;1.00;;;18.60;88.20;;;;;;5000428;28;21271;-75
2021/10/05 10:51:28;;;;;;;1.50;0.90;;;18.70;86.80;;;;;;4975972;28;20842;-76
2021/10/05 10:53:55;;;;;;;1.50;0.90;;;18.70;86.80;;;;;;5003138;28;20539;-75
2021/10/05 10:56:30;;;;;;;1.50;1.00;;;18.80;85.80;;;;;;4974953;28;20480;-79
2021/10/05 10:59:02;;;;;;;1.50;1.00;;;18.90;86.60;;;;;;5002848;28;20503;-75
2021/10/05 11:01:42;;;;;;;1.50;0.90;;;19.00;86.30;;;;;;4987249;28;20487;-79
2021/10/05 11:04:11;;;;;;;1.50;0.90;;;19.00;84.20;;;;;;4997916;28;20501;-78
2021/10/05 11:06:39;;;;;;;1.50;0.90;;;19.00;85.30;;;;;;4983025;28;20578;-77
2021/10/05 11:11:57;;;;;;;1.53;1.00;;;19.20;84.60;;;;;;4988412;28;20904;-75
2021/10/05 11:14:27;;;;;;;1.60;1.20;;;19.20;84.70;;;;;;4992002;28;20479;-77
2021/10/05 11:16:56;;;;;;;1.50;0.90;;;19.30;84.70;;;;;;4987992;28;21168;-73
2021/10/05 11:19:29;;;;;;;1.50;1.00;;;19.30;83.50;;;;;;4995866;28;20502;-74
2021/10/05 11:21:59;;;;;;;1.50;1.00;;;19.30;84.20;;;;;;4984482;28;20484;-75
2021/10/05 11:24:36;;;;;;;1.50;0.90;;;19.40;83.80;;;;;;4994561;28;20944;-76
2021/10/05 11:27:08;;;;;;;1.50;1.00;;;19.40;83.80;;;;;;4989624;28;20487;-75
2021/10/05 11:29:35;;;;;;;1.53;1.00;;;19.50;83.60;;;;;;4990556;28;20498;-76
2021/10/05 11:32:05;;;;;;;1.50;0.90;;;19.50;83.50;;;;;;4993967;28;20794;-76
2021/10/05 11:34:37;;;;;;;4.17;2.13;;;19.60;83.90;;;;;;4995699;28;20497;-75
2021/10/05 11:37:06;;;;;;;1.50;0.90;;;19.60;83.50;;;;;;4978423;28;21368;-76
2021/10/05 11:39:35;;;;;;;1.50;1.00;;;19.70;83.60;;;;;;5014947;23;20503;-75
2021/10/05 11:42:09;;;;;;;1.50;1.00;;;19.80;83.90;;;;;;5010549;28;20474;-77
2021/10/05 11:44:41;;;;;;;1.50;0.90;;;19.90;83.50;;;;;;5011863;28;20471;-75
2021/10/05 11:47:10;;;;;;;1.50;0.97;;;19.90;82.80;;;;;;5003187;28;20487;-77
2021/10/05 11:49:38;;;;;;;1.50;0.90;;;19.90;83.50;;;;;;4990404;28;20901;-76
2021/10/05 11:52:12;;;;;;;1.50;0.90;;;19.90;82.80;;;;;;4981011;28;21383;-76
2021/10/05 11:54:39;;;;;;;1.50;0.90;;;19.80;83.50;;;;;;4995955;28;20547;-75
2021/10/05 11:57:11;;;;;;;1.50;0.90;;;19.70;82.90;;;;;;4989228;28;20603;-75
2021/10/05 11:59:38;;;;;;;1.50;0.90;;;19.60;83.90;;;;;;4994422;28;20505;-75
2021/10/05 12:02:07;;;;;;;1.50;0.90;;;19.50;83.90;;;;;;4991131;28;20483;-74
2021/10/05 12:04:35;;;;;;;1.50;0.90;;;19.40;84.40;;;;;;4998350;28;20781;-75
2021/10/05 12:07:05;;;;;;;1.53;1.10;;;19.30;84.40;;;;;;4987742;28;20538;-76
2021/10/05 12:09:34;;;;;;;1.50;0.90;;;19.20;84.40;;;;;;4997696;28;20544;-75
2021/10/05 12:12:09;;;;;;;1.50;0.97;;;19.20;85.40;;;;;;4992802;28;20476;-76
2021/10/05 12:14:38;;;;;;;1.50;0.90;;;19.10;85.70;;;;;;4998009;28;21234;-75
2021/10/05 12:17:10;;;;;;;1.50;0.90;;;19.20;86.30;;;;;;4976676;28;20965;-75
2021/10/05 12:19:38;;;;;;;1.50;0.90;;;19.40;85.40;;;;;;4969459;28;20489;-75
2021/10/05 12:22:08;;;;;;;1.50;0.90;;;19.50;85.10;;;;;;4966408;28;20500;-76
2021/10/05 12:24:46;;;;;;;1.50;0.90;;;19.50;84.90;;;;;;4969926;28;20457;-78
2021/10/05 12:27:17;;;;;;;1.50;0.90;;;19.40;84.70;;;;;;4967034;28;20507;-79
2021/10/05 12:29:50;;;;;;;1.50;0.90;;;19.40;85.00;;;;;;4969656;28;20573;-79
2021/10/05 12:32:17;;;;;;;1.50;1.00;;;19.40;85.10;;;;;;4958222;28;20524;-78
2021/10/05 12:34:50;;;;;;;1.50;0.90;;;19.40;84.50;;;;;;4958523;28;20463;-80
2021/10/05 12:37:18;;;;;;;1.50;1.00;;;19.30;84.70;;;;;;4959202;28;20540;-75
2021/10/05 12:39:58;;;;;;;1.50;0.90;;;19.30;84.50;;;;;;4961737;28;20950;-76
2021/10/05 12:42:35;;;;;;;1.50;0.90;;;19.30;84.70;;;;;;4969419;28;20517;-76
2021/10/05 12:45:09;;;;;;;1.50;0.90;;;19.30;84.90;;;;;;4958075;28;20473;-77
2021/10/05 12:47:36;;;;;;;1.50;0.90;;;19.30;84.70;;;;;;4970982;28;20477;-76
2021/10/05 12:50:04;;;;;;;1.50;0.90;;;19.30;85.60;;;;;;4969234;28;20473;-77
2021/10/05 12:52:31;;;;;;;1.50;0.90;;;19.40;85.00;;;;;;4969382;28;20674;-78
2021/10/05 12:55:00;;;;;;;1.50;0.90;;;19.40;85.00;;;;;;4963414;28;20477;-76
2021/10/05 12:57:27;;;;;;;1.50;0.90;;;19.50;85.60;;;;;;4969860;28;20997;-78
2021/10/05 12:59:54;;;;;;;1.50;1.00;;;19.60;84.50;;;;;;4969924;28;20561;-76